Terminal Aerodrome Forecast
Issued by NWS Blacksburg, VA

Current Version | Previous Version | Graphics & Text | Print | Product List | Glossary On
Versions: 1 2 3 4 5 6 7 8 9 10 11 12 13 14 15 16 17 18 19 20 21
408
FTUS41 KRNK 191739
TAFBLF
TAF
KBLF 191739Z 1918/2018 29011KT P6SM VCSH SCT025 BKN060
     FM192000 30012G20KT P6SM SCT030
     FM200000 31007KT P6SM FEW035
     FM200800 27004KT P6SM SCT004
     FM201400 29008KT P6SM SKC=

USA.gov is the U.S. government's official web portal to all federal, state and local government web resources and services.